sensor_id;sensor_type;location;lat;lon;timestamp;P1;durP1;ratioP1;P2;durP2;ratioP2
77168;SDS011;66281;45.114;20.730;2023-08-07T00:03:57;2.40;;;1.63;;
77168;SDS011;66281;45.114;20.730;2023-08-07T00:13:58;1.85;;;1.02;;
77168;SDS011;66281;45.114;20.730;2023-08-07T00:23:59;1.80;;;1.20;;
77168;SDS011;66281;45.114;20.730;2023-08-07T00:33:59;1.77;;;1.67;;
77168;SDS011;66281;45.114;20.730;2023-08-07T00:44:00;1.50;;;1.40;;
77168;SDS011;66281;45.114;20.730;2023-08-07T00:54:00;1.70;;;1.30;;
77168;SDS011;66281;45.114;20.730;2023-08-07T01:04:04;2.35;;;1.52;;
77168;SDS011;66281;45.114;20.730;2023-08-07T01:14:07;1.90;;;1.60;;
77168;SDS011;66281;45.114;20.730;2023-08-07T01:24:14;2.20;;;2.00;;
77168;SDS011;66281;45.114;20.730;2023-08-07T01:34:15;1.23;;;1.13;;
77168;SDS011;66281;45.114;20.730;2023-08-07T01:44:18;3.05;;;1.90;;
77168;SDS011;66281;45.114;20.730;2023-08-07T01:54:18;1.93;;;1.50;;
77168;SDS011;66281;45.114;20.730;2023-08-07T02:04:19;3.07;;;2.13;;
77168;SDS011;66281;45.114;20.730;2023-08-07T02:14:20;7.00;;;1.92;;
77168;SDS011;66281;45.114;20.730;2023-08-07T02:24:21;2.95;;;2.30;;
77168;SDS011;66281;45.114;20.730;2023-08-07T02:34:22;2.90;;;2.17;;
77168;SDS011;66281;45.114;20.730;2023-08-07T02:44:22;3.20;;;1.57;;
77168;SDS011;66281;45.114;20.730;2023-08-07T02:54:23;3.47;;;2.40;;
77168;SDS011;66281;45.114;20.730;2023-08-07T03:04:24;3.13;;;2.83;;
77168;SDS011;66281;45.114;20.730;2023-08-07T03:14:24;2.63;;;2.30;;
77168;SDS011;66281;45.114;20.730;2023-08-07T03:24:25;7.25;;;2.80;;
77168;SDS011;66281;45.114;20.730;2023-08-07T03:34:26;4.23;;;3.47;;
77168;SDS011;66281;45.114;20.730;2023-08-07T03:44:26;10.97;;;5.60;;
77168;SDS011;66281;45.114;20.730;2023-08-07T03:54:28;6.33;;;3.50;;
77168;SDS011;66281;45.114;20.730;2023-08-07T04:04:28;6.03;;;5.20;;
77168;SDS011;66281;45.114;20.730;2023-08-07T04:14:29;6.33;;;4.10;;
77168;SDS011;66281;45.114;20.730;2023-08-07T04:24:30;6.20;;;3.50;;
77168;SDS011;66281;45.114;20.730;2023-08-07T04:34:30;5.57;;;3.33;;
77168;SDS011;66281;45.114;20.730;2023-08-07T04:44:31;4.10;;;3.70;;
77168;SDS011;66281;45.114;20.730;2023-08-07T04:54:31;4.95;;;3.00;;
77168;SDS011;66281;45.114;20.730;2023-08-07T05:04:32;5.63;;;3.13;;
77168;SDS011;66281;45.114;20.730;2023-08-07T05:14:32;4.47;;;3.40;;
77168;SDS011;66281;45.114;20.730;2023-08-07T05:24:33;4.13;;;3.20;;
77168;SDS011;66281;45.114;20.730;2023-08-07T05:34:33;4.15;;;3.42;;
77168;SDS011;66281;45.114;20.730;2023-08-07T05:44:34;7.83;;;3.63;;
77168;SDS011;66281;45.114;20.730;2023-08-07T05:54:35;3.83;;;3.05;;
77168;SDS011;66281;45.114;20.730;2023-08-07T06:04:35;3.33;;;3.10;;
77168;SDS011;66281;45.114;20.730;2023-08-07T06:14:37;3.13;;;2.67;;
77168;SDS011;66281;45.114;20.730;2023-08-07T06:24:37;3.70;;;2.42;;
77168;SDS011;66281;45.114;20.730;2023-08-07T06:34:38;2.85;;;2.28;;
77168;SDS011;66281;45.114;20.730;2023-08-07T06:44:38;2.87;;;2.67;;
77168;SDS011;66281;45.114;20.730;2023-08-07T06:54:39;2.70;;;2.50;;
77168;SDS011;66281;45.114;20.730;2023-08-07T07:04:39;2.87;;;2.60;;
77168;SDS011;66281;45.114;20.730;2023-08-07T07:14:40;3.47;;;3.20;;
77168;SDS011;66281;45.114;20.730;2023-08-07T07:24:40;2.90;;;2.40;;
77168;SDS011;66281;45.114;20.730;2023-08-07T07:34:41;2.30;;;2.00;;
77168;SDS011;66281;45.114;20.730;2023-08-07T07:44:42;2.43;;;1.90;;
77168;SDS011;66281;45.114;20.730;2023-08-07T07:54:42;2.22;;;2.03;;
77168;SDS011;66281;45.114;20.730;2023-08-07T08:04:43;2.00;;;1.83;;
77168;SDS011;66281;45.114;20.730;2023-08-07T08:14:44;3.13;;;1.97;;
77168;SDS011;66281;45.114;20.730;2023-08-07T08:24:44;3.90;;;2.08;;
77168;SDS011;66281;45.114;20.730;2023-08-07T08:34:45;1.73;;;1.63;;
77168;SDS011;66281;45.114;20.730;2023-08-07T08:44:51;2.37;;;1.40;;
77168;SDS011;66281;45.114;20.730;2023-08-07T08:54:52;1.57;;;1.47;;
77168;SDS011;66281;45.114;20.730;2023-08-07T09:04:53;2.67;;;1.87;;
77168;SDS011;66281;45.114;20.730;2023-08-07T09:14:54;2.55;;;2.35;;
77168;SDS011;66281;45.114;20.730;2023-08-07T09:24:56;1.63;;;1.53;;
77168;SDS011;66281;45.114;20.730;2023-08-07T09:34:57;1.57;;;1.47;;
77168;SDS011;66281;45.114;20.730;2023-08-07T09:44:59;1.58;;;1.48;;
77168;SDS011;66281;45.114;20.730;2023-08-07T09:55:00;1.65;;;1.55;;
77168;SDS011;66281;45.114;20.730;2023-08-07T10:05:00;1.33;;;1.23;;
77168;SDS011;66281;45.114;20.730;2023-08-07T10:15:01;1.30;;;1.20;;
77168;SDS011;66281;45.114;20.730;2023-08-07T10:25:03;2.47;;;1.55;;
77168;SDS011;66281;45.114;20.730;2023-08-07T10:35:04;17.57;;;2.37;;
77168;SDS011;66281;45.114;20.730;2023-08-07T10:45:05;1.87;;;1.77;;
77168;SDS011;66281;45.114;20.730;2023-08-07T10:55:12;1.47;;;1.37;;
77168;SDS011;66281;45.114;20.730;2023-08-07T11:05:13;2.07;;;1.60;;
77168;SDS011;66281;45.114;20.730;2023-08-07T11:15:14;2.43;;;2.07;;
77168;SDS011;66281;45.114;20.730;2023-08-07T11:25:15;1.40;;;1.30;;
77168;SDS011;66281;45.114;20.730;2023-08-07T11:35:15;1.47;;;1.10;;
77168;SDS011;66281;45.114;20.730;2023-08-07T11:45:16;1.63;;;1.53;;
77168;SDS011;66281;45.114;20.730;2023-08-07T11:55:17;1.30;;;1.07;;
77168;SDS011;66281;45.114;20.730;2023-08-07T12:05:18;2.43;;;1.67;;
77168;SDS011;66281;45.114;20.730;2023-08-07T12:15:18;2.03;;;1.85;;
77168;SDS011;66281;45.114;20.730;2023-08-07T12:25:20;2.42;;;2.20;;
77168;SDS011;66281;45.114;20.730;2023-08-07T12:35:20;1.23;;;1.13;;
77168;SDS011;66281;45.114;20.730;2023-08-07T12:45:21;2.17;;;2.05;;
77168;SDS011;66281;45.114;20.730;2023-08-07T12:55:22;1.93;;;1.47;;
77168;SDS011;66281;45.114;20.730;2023-08-07T13:05:23;1.53;;;1.43;;
77168;SDS011;66281;45.114;20.730;2023-08-07T13:15:23;1.92;;;1.83;;
77168;SDS011;66281;45.114;20.730;2023-08-07T13:25:24;2.03;;;1.92;;
77168;SDS011;66281;45.114;20.730;2023-08-07T13:35:25;7.13;;;2.30;;
77168;SDS011;66281;45.114;20.730;2023-08-07T13:45:25;2.63;;;2.15;;
77168;SDS011;66281;45.114;20.730;2023-08-07T13:55:26;1.92;;;1.67;;
77168;SDS011;66281;45.114;20.730;2023-08-07T14:05:27;2.03;;;1.93;;
77168;SDS011;66281;45.114;20.730;2023-08-07T14:15:27;17.20;;;3.47;;
77168;SDS011;66281;45.114;20.730;2023-08-07T14:25:28;20.88;;;3.95;;
77168;SDS011;66281;45.114;20.730;2023-08-07T14:35:28;6.30;;;2.73;;
77168;SDS011;66281;45.114;20.730;2023-08-07T14:45:29;8.85;;;2.13;;
77168;SDS011;66281;45.114;20.730;2023-08-07T14:55:30;3.45;;;2.05;;
77168;SDS011;66281;45.114;20.730;2023-08-07T15:05:30;5.07;;;1.97;;
77168;SDS011;66281;45.114;20.730;2023-08-07T15:15:31;5.60;;;1.65;;
77168;SDS011;66281;45.114;20.730;2023-08-07T18:54:46;0.70;;;0.70;;
77168;SDS011;66281;45.114;20.730;2023-08-07T19:04:46;1.83;;;0.60;;
77168;SDS011;66281;45.114;20.730;2023-08-07T19:14:47;4.00;;;1.17;;
77168;SDS011;66281;45.114;20.730;2023-08-07T19:24:48;2.30;;;0.60;;
77168;SDS011;66281;45.114;20.730;2023-08-07T19:34:48;4.93;;;1.37;;
77168;SDS011;66281;45.114;20.730;2023-08-07T19:44:49;1.17;;;0.57;;
77168;SDS011;66281;45.114;20.730;2023-08-07T19:54:49;1.40;;;0.60;;
77168;SDS011;66281;45.114;20.730;2023-08-07T20:04:50;1.13;;;0.80;;
77168;SDS011;66281;45.114;20.730;2023-08-07T20:14:51;0.70;;;0.63;;
77168;SDS011;66281;45.114;20.730;2023-08-07T20:24:52;4.78;;;1.25;;
77168;SDS011;66281;45.114;20.730;2023-08-07T20:34:53;1.77;;;0.83;;
77168;SDS011;66281;45.114;20.730;2023-08-07T20:44:56;1.57;;;0.90;;
77168;SDS011;66281;45.114;20.730;2023-08-07T20:54:56;1.67;;;0.50;;
77168;SDS011;66281;45.114;20.730;2023-08-07T21:04:58;0.60;;;0.40;;
77168;SDS011;66281;45.114;20.730;2023-08-07T21:14:59;0.40;;;0.40;;
77168;SDS011;66281;45.114;20.730;2023-08-07T21:24:59;1.10;;;0.85;;
77168;SDS011;66281;45.114;20.730;2023-08-07T21:35:00;0.60;;;0.40;;
77168;SDS011;66281;45.114;20.730;2023-08-07T21:45:01;2.95;;;0.50;;
77168;SDS011;66281;45.114;20.730;2023-08-07T21:55:01;0.97;;;0.63;;
77168;SDS011;66281;45.114;20.730;2023-08-07T22:05:02;0.73;;;0.50;;
77168;SDS011;66281;45.114;20.730;2023-08-07T22:15:03;0.50;;;0.40;;
77168;SDS011;66281;45.114;20.730;2023-08-07T22:25:04;0.40;;;0.40;;
77168;SDS011;66281;45.114;20.730;2023-08-07T22:35:05;3.67;;;0.93;;
77168;SDS011;66281;45.114;20.730;2023-08-07T22:45:06;0.80;;;0.67;;
77168;SDS011;66281;45.114;20.730;2023-08-07T22:55:07;1.90;;;0.60;;
77168;SDS011;66281;45.114;20.730;2023-08-07T23:05:07;0.70;;;0.50;;
77168;SDS011;66281;45.114;20.730;2023-08-07T23:15:08;0.80;;;0.80;;
77168;SDS011;66281;45.114;20.730;2023-08-07T23:25:09;0.50;;;0.47;;
77168;SDS011;66281;45.114;20.730;2023-08-07T23:35:10;0.50;;;0.50;;
77168;SDS011;66281;45.114;20.730;2023-08-07T23:45:10;0.93;;;0.50;;
77168;SDS011;66281;45.114;20.730;2023-08-07T23:55:11;0.70;;;0.70;;
